Time;durP1;ratioP1;P1;durP2;ratioP2;P2;SDS_P1;SDS_P2;PMS_P1;PMS_P2;Temp;Humidity;BMP_temperature;BMP_pressure;BME280_temperature;BME280_humidity;BME280_pressure;Samples;Min_cycle;Max_cycle;Signal;HPM_P1;HPM_P2
2023/10/29 00:00:43;;;;;;;10.48;3.17;;;;;;;12.77;nan;99227.78;4921912;28;98547;-81
2023/10/29 00:03:09;;;;;;;11.30;3.65;;;;;;;12.82;nan;99228.31;4954566;28;96589;-81
2023/10/29 00:05:35;;;;;;;7.82;3.80;;;;;;;12.73;nan;99236.78;4937744;28;96902;-82
2023/10/29 00:08:00;;;;;;;14.57;3.72;;;;;;;12.72;nan;99236.88;4937914;28;97616;-81
2023/10/29 00:10:26;;;;;;;9.18;3.10;;;;;;;12.73;nan;99236.78;4938062;28;97870;-82
2023/10/29 00:12:51;;;;;;;10.85;3.00;;;;;;;12.79;nan;99240.84;4938101;28;96534;-81
2023/10/29 00:15:17;;;;;;;9.13;3.58;;;;;;;12.82;nan;99240.63;4938078;28;96899;-82
2023/10/29 00:17:42;;;;;;;7.75;2.95;;;;;;;12.79;nan;99238.19;4921294;28;101351;-82
2023/10/29 00:20:09;;;;;;;8.20;2.83;;;;;;;12.80;nan;99235.47;4937387;28;101157;-82
2023/10/29 00:22:34;;;;;;;9.40;3.00;;;;;;;12.78;nan;99242.63;4937208;28;96567;-81
2023/10/29 00:25:00;;;;;;;8.05;2.90;;;;;;;12.72;nan;99227.19;4937444;28;96879;-82
2023/10/29 00:27:25;;;;;;;8.20;2.95;;;;;;;12.65;nan;99223.22;4937320;28;101166;-81
2023/10/29 00:29:52;;;;;;;9.13;4.05;;;;;;;12.67;nan;99229.25;4937300;28;101383;-82
2023/10/29 00:32:18;;;;;;;8.20;3.05;;;;;;;12.76;nan;99238.38;4921595;28;96566;-82
2023/10/29 00:34:48;;;;;;;9.40;3.15;;;;;;;12.93;nan;99246.13;4921940;28;96866;-81
2023/10/29 00:37:14;;;;;;;6.03;2.70;;;;;;;12.85;nan;99238.66;4938987;28;101303;-82
2023/10/29 00:39:40;;;;;;;5.43;2.42;;;;;;;12.88;nan;99241.09;4925102;28;101818;-81
2023/10/29 00:42:06;;;;;;;8.80;2.78;;;;;;;12.78;nan;99242.63;4940991;28;96638;-82
2023/10/29 00:44:32;;;;;;;7.95;3.08;;;;;;;12.81;nan;99252.13;4956757;28;96871;-82
2023/10/29 00:46:58;;;;;;;5.55;2.50;;;;;;;12.72;nan;99242.16;4923947;28;101183;-81
2023/10/29 00:49:42;;;;;;;6.40;2.70;;;;;;;12.80;nan;99255.69;4924245;28;102003;-82
2023/10/29 00:52:09;;;;;;;8.05;2.75;;;;;;;12.61;nan;99230.47;4957464;28;96666;-81
2023/10/29 00:54:34;;;;;;;5.20;2.53;;;;;;;12.72;nan;99243.00;4924742;28;96886;-81
2023/10/29 00:57:00;;;;;;;6.50;2.90;;;;;;;12.54;nan;99212.50;4924446;28;100585;-82
2023/10/29 00:59:27;;;;;;;7.05;2.58;;;;;;;12.76;nan;99225.22;4940349;28;101176;-81
2023/10/29 01:01:53;;;;;;;7.45;2.55;;;;;;;12.94;nan;99252.22;4940632;28;96747;-81
2023/10/29 01:04:18;;;;;;;5.88;2.42;;;;;;;12.80;nan;99232.84;4957344;28;97197;-82
2023/10/29 01:06:46;;;;;;;6.95;2.95;;;;;;;12.83;nan;99250.25;4940377;28;100106;-82
2023/10/29 01:09:12;;;;;;;12.02;2.42;;;;;;;12.78;nan;99247.03;4924216;28;100903;-82
2023/10/29 01:11:38;;;;;;;8.10;2.55;;;;;;;12.84;nan;99244.88;4923946;28;96635;-81
2023/10/29 01:14:04;;;;;;;12.90;3.03;;;;;;;12.83;nan;99234.47;4940325;28;96866;-82
2023/10/29 01:16:29;;;;;;;6.53;2.53;;;;;;;12.86;nan;99252.72;4923811;28;101395;-82
2023/10/29 01:18:56;;;;;;;8.02;2.85;;;;;;;12.84;nan;99247.50;4940171;28;97885;-82
2023/10/29 01:21:23;;;;;;;5.85;2.33;;;;;;;12.74;nan;99237.63;4940328;28;96602;-82
2023/10/29 01:23:48;;;;;;;6.65;2.85;;;;;;;12.77;nan;99243.56;4924344;28;96620;-81
2023/10/29 01:26:14;;;;;;;6.65;2.67;;;;;;;12.69;nan;99243.19;4939615;28;102309;-82
2023/10/29 01:28:39;;;;;;;7.18;2.83;;;;;;;12.65;nan;99223.22;4940254;28;101205;-81
2023/10/29 01:31:06;;;;;;;6.78;2.45;;;;;;;12.73;nan;99231.50;4940516;28;96669;-82
2023/10/29 01:33:32;;;;;;;4.72;2.40;;;;;;;12.48;nan;99216.34;4940210;28;96914;-82
2023/10/29 01:35:58;;;;;;;9.77;2.55;;;;;;;12.42;nan;99232.47;4923332;28;101549;-82
2023/10/29 01:38:23;;;;;;;5.18;2.08;;;;;;;12.37;nan;99222.25;4923675;28;97941;-82
2023/10/29 01:40:49;;;;;;;9.82;2.50;;;;;;;12.39;nan;99225.63;4939912;28;96648;-82
2023/10/29 01:43:14;;;;;;;5.97;2.38;;;;;;;12.41;nan;99226.38;4940111;28;96821;-82
2023/10/29 01:45:40;;;;;;;4.75;2.17;;;;;;;12.38;nan;99223.91;4955759;28;97967;-81
2023/10/29 01:48:05;;;;;;;6.63;2.70;;;;;;;12.34;nan;99235.56;4923523;28;101727;-81
2023/10/29 01:50:31;;;;;;;7.93;3.28;;;;;;;12.33;nan;99227.75;4939924;28;96580;-82
2023/10/29 01:52:57;;;;;;;6.45;2.20;;;;;;;12.33;nan;99225.13;4924381;28;96802;-82
2023/10/29 01:55:22;;;;;;;6.25;2.13;;;;;;;12.38;nan;99234.44;4923183;28;101460;-82
2023/10/29 01:57:48;;;;;;;7.13;2.40;;;;;;;12.45;nan;99227.06;4939451;28;101072;-82
2023/10/29 02:00:15;;;;;;;7.30;2.70;;;;;;;12.42;nan;99214.06;4939144;28;96607;-82
2023/10/29 02:02:40;;;;;;;5.10;2.22;;;;;;;12.51;nan;99231.97;4956239;28;96765;-82
2023/10/29 02:05:06;;;;;;;7.60;2.17;;;;;;;12.42;nan;99222.81;4923212;28;101315;-81
2023/10/29 02:07:32;;;;;;;9.13;2.80;;;;;;;12.38;nan;99218.66;4939280;28;101697;-82
2023/10/29 02:09:58;;;;;;;3.60;1.90;;;;;;;12.36;nan;99230.22;4923478;28;96560;-82
2023/10/29 02:12:23;;;;;;;7.78;2.42;;;;;;;12.41;nan;99223.75;4939483;28;96986;-82
2023/10/29 02:14:52;;;;;;;4.80;2.38;;;;;;;12.24;nan;99229.13;4939486;28;101816;-82
2023/10/29 02:17:18;;;;;;;7.93;2.85;;;;;;;12.34;nan;99230.31;4939494;28;101171;-82
2023/10/29 02:19:43;;;;;;;5.32;2.40;;;;;;;12.29;nan;99224.47;4923196;28;97091;-80
2023/10/29 02:22:09;;;;;;;9.85;2.35;;;;;;;12.38;nan;99229.19;4956059;28;96859;-81
2023/10/29 02:24:34;;;;;;;7.07;2.38;;;;;;;12.45;nan;99219.16;4922281;28;101886;-82
2023/10/29 02:27:00;;;;;;;6.85;2.40;;;;;;;12.45;nan;99217.38;4922944;28;101217;-82
2023/10/29 02:29:25;;;;;;;7.25;2.85;;;;;;;12.41;nan;99217.63;4923425;28;96578;-82
2023/10/29 02:31:51;;;;;;;6.53;2.03;;;;;;;12.35;nan;99224.09;4923349;28;96859;-82
2023/10/29 02:34:17;;;;;;;6.15;2.45;;;;;;;12.41;nan;99222.91;4938833;28;101794;-81
2023/10/29 02:36:42;;;;;;;4.00;2.20;;;;;;;12.38;nan;99226.56;4938948;28;101167;-81
2023/10/29 02:39:08;;;;;;;5.10;2.10;;;;;;;12.40;nan;99227.31;4922796;28;96543;-82
2023/10/29 02:41:33;;;;;;;7.00;2.45;;;;;;;12.34;nan;99224.22;4907380;28;96914;-82
2023/10/29 02:44:00;;;;;;;4.60;2.40;;;;;;;12.45;nan;99242.84;4938307;28;101753;-82
2023/10/29 02:46:25;;;;;;;5.10;2.35;;;;;;;12.50;nan;99245.19;4922653;28;100861;-81
2023/10/29 02:48:51;;;;;;;6.85;2.17;;;;;;;12.65;nan;99239.88;4938442;28;96590;-83
2023/10/29 02:51:16;;;;;;;4.55;1.67;;;;;;;12.63;nan;99240.91;4922618;28;96865;-82
2023/10/29 02:53:42;;;;;;;5.75;2.55;;;;;;;12.57;nan;99234.22;4922283;28;101239;-83
2023/10/29 02:56:08;;;;;;;4.50;2.17;;;;;;;12.65;nan;99226.72;4938547;28;101784;-82
2023/10/29 02:58:34;;;;;;;3.92;2.10;;;;;;;12.46;nan;99216.44;4938683;28;96574;-83
2023/10/29 03:01:07;;;;;;;5.88;2.13;;;;;;;12.56;nan;99221.97;4938179;28;96866;-83
2023/10/29 03:03:37;;;;;;;4.30;2.53;;;;;;;12.77;nan;99242.69;4922512;28;101325;-82
2023/10/29 03:06:06;;;;;;;3.78;1.98;;;;;;;12.69;nan;99220.31;4938715;28;101769;-82
2023/10/29 03:08:32;;;;;;;3.55;1.90;;;;;;;12.82;nan;99232.75;4922534;28;96589;-82
2023/10/29 03:10:58;;;;;;;5.25;2.28;;;;;;;12.87;nan;99249.13;4939141;28;96815;-82
2023/10/29 03:13:24;;;;;;;9.18;1.67;;;;;;;12.81;nan;99241.59;4937718;28;101493;-82
2023/10/29 03:15:49;;;;;;;5.22;2.30;;;;;;;12.65;nan;99239.88;4938233;28;101789;-82
2023/10/29 03:18:15;;;;;;;7.20;2.35;;;;;;;12.61;nan;99243.63;4938437;28;96683;-82
2023/10/29 03:20:41;;;;;;;10.45;2.33;;;;;;;12.52;nan;99230.16;4922427;28;96902;-82
2023/10/29 03:23:07;;;;;;;4.72;2.60;;;;;;;12.55;nan;99245.78;4938143;28;101547;-82
2023/10/29 03:25:32;;;;;;;6.30;2.25;;;;;;;12.50;nan;99242.56;4955944;28;97402;-82
2023/10/29 03:27:58;;;;;;;6.88;2.30;;;;;;;12.54;nan;99244.94;4938660;28;96561;-82
2023/10/29 03:30:24;;;;;;;6.20;2.40;;;;;;;12.59;nan;99234.13;4938932;28;96842;-82
2023/10/29 03:32:50;;;;;;;5.95;2.47;;;;;;;12.71;nan;99228.13;4937973;28;101406;-82
2023/10/29 03:35:15;;;;;;;4.82;2.10;;;;;;;12.68;nan;99210.75;4922025;28;101805;-82
2023/10/29 03:37:41;;;;;;;6.35;2.40;;;;;;;12.71;nan;99220.22;4937919;28;96680;-83
2023/10/29 03:40:08;;;;;;;5.95;2.10;;;;;;;12.71;nan;99214.94;4938845;28;96811;-82
2023/10/29 03:42:34;;;;;;;5.90;2.25;;;;;;;12.81;nan;99217.88;4937842;28;101185;-82
2023/10/29 03:45:00;;;;;;;6.90;2.42;;;;;;;12.84;nan;99197.47;4954066;28;98146;-83
2023/10/29 03:47:25;;;;;;;8.85;2.30;;;;;;;13.00;nan;99210.56;4938175;28;96617;-83
2023/10/29 03:49:51;;;;;;;6.63;2.67;;;;;;;13.04;nan;99208.59;4938477;28;96971;-82
2023/10/29 03:52:19;;;;;;;9.88;2.25;;;;;;;13.08;nan;99213.56;4937632;28;101559;-83
2023/10/29 03:54:45;;;;;;;4.90;2.63;;;;;;;13.08;nan;99210.91;4921958;28;101482;-82
2023/10/29 03:57:10;;;;;;;8.45;2.42;;;;;;;13.09;nan;99212.63;4921992;28;96571;-82
2023/10/29 03:59:36;;;;;;;5.07;2.40;;;;;;;12.95;nan;99193.34;4954211;28;96799;-83
2023/10/29 04:02:03;;;;;;;4.05;1.90;;;;;;;12.88;nan;99182.31;4954005;28;97954;-82
2023/10/29 04:04:29;;;;;;;4.38;2.05;;;;;;;13.01;nan;99212.25;4937963;28;97785;-82
2023/10/29 04:06:56;;;;;;;6.50;2.15;;;;;;;12.94;nan;99215.34;4937992;28;96576;-82
2023/10/29 04:09:22;;;;;;;4.00;1.80;;;;;;;12.79;nan;99217.97;4938032;28;96999;-82
2023/10/29 04:11:48;;;;;;;4.40;1.90;;;;;;;12.83;nan;99210.75;4904366;28;101361;-82
2023/10/29 04:14:14;;;;;;;5.20;2.42;;;;;;;12.84;nan;99201.91;4953983;28;98395;-82
2023/10/29 04:16:40;;;;;;;5.90;2.30;;;;;;;12.72;nan;99184.22;4937635;28;96592;-82
2023/10/29 04:19:05;;;;;;;7.38;2.10;;;;;;;12.81;nan;99200.31;4937956;28;96987;-82
2023/10/29 04:21:31;;;;;;;5.82;2.42;;;;;;;12.77;nan;99193.53;4937541;28;97325;-82
2023/10/29 04:23:57;;;;;;;4.15;2.47;;;;;;;12.71;nan;99191.25;4937125;28;101288;-82
2023/10/29 04:26:22;;;;;;;6.85;2.15;;;;;;;12.38;nan;99191.50;4936863;28;96612;-81
2023/10/29 04:28:48;;;;;;;4.13;1.52;;;;;;;12.39;nan;99198.44;4954114;28;96641;-81
2023/10/29 04:31:13;;;;;;;3.35;1.90;;;;;;;12.23;nan;99203.78;4937526;28;97654;-82
2023/10/29 04:33:39;;;;;;;6.32;2.15;;;;;;;12.24;nan;99201.03;4921005;28;97453;-81
2023/10/29 04:36:05;;;;;;;8.75;2.15;;;;;;;12.35;nan;99218.00;4937600;28;96742;-82
2023/10/29 04:38:31;;;;;;;4.82;1.80;;;;;;;12.44;nan;99217.44;4921278;28;96885;-81
2023/10/29 04:40:56;;;;;;;5.00;1.77;;;;;;;12.27;nan;99207.91;4937112;28;100509;-82
2023/10/29 04:43:22;;;;;;;6.32;1.95;;;;;;;12.10;nan;99210.69;4921572;28;101393;-82
2023/10/29 04:45:48;;;;;;;4.68;2.17;;;;;;;12.22;nan;99237.13;4921408;28;96674;-81
2023/10/29 04:48:14;;;;;;;7.22;1.73;;;;;;;12.20;nan;99225.00;4921593;28;96942;-82
2023/10/29 04:50:39;;;;;;;3.95;2.00;;;;;;;12.20;nan;99240.78;4936526;28;101381;-82
2023/10/29 04:53:05;;;;;;;5.90;2.30;;;;;;;12.17;nan;99236.56;4937281;28;97908;-82
2023/10/29 04:55:31;;;;;;;5.88;2.40;;;;;;;12.12;nan;99230.69;4954365;28;96666;-82
2023/10/29 04:57:57;;;;;;;6.63;2.10;;;;;;;12.15;nan;99225.25;4954705;28;96745;-83
2023/10/29 05:00:22;;;;;;;7.07;1.98;;;;;;;12.35;nan;99220.63;4938114;28;101448;-82
2023/10/29 05:02:48;;;;;;;3.65;2.00;;;;;;;12.42;nan;99212.28;4921386;28;101335;-82
2023/10/29 05:05:13;;;;;;;4.38;2.47;;;;;;;12.47;nan;99204.09;4921785;28;96540;-82
2023/10/29 05:07:40;;;;;;;4.45;2.03;;;;;;;12.52;nan;99209.94;4921749;28;96915;-81
2023/10/29 05:10:06;;;;;;;6.07;1.92;;;;;;;12.56;nan;99211.44;4904926;28;101793;-82
2023/10/29 05:12:32;;;;;;;4.05;2.28;;;;;;;12.35;nan;99197.78;4953607;28;97407;-82
2023/10/29 05:14:58;;;;;;;4.05;2.17;;;;;;;12.42;nan;99200.91;4936946;28;96605;-82
2023/10/29 05:17:23;;;;;;;24.15;4.72;;;;;;;12.55;nan;99208.94;4954049;28;96855;-82
2023/10/29 05:19:49;;;;;;;4.60;2.25;;;;;;;12.61;nan;99198.88;4920674;28;100021;-82
2023/10/29 05:22:14;;;;;;;12.68;3.10;;;;;;;12.64;nan;99201.31;4936974;28;101291;-82
2023/10/29 05:24:40;;;;;;;6.65;2.90;;;;;;;12.59;nan;99199.91;4924539;28;96578;-82
2023/10/29 05:27:05;;;;;;;6.45;2.50;;;;;;;12.55;nan;99195.75;4957224;28;96607;-82
2023/10/29 05:29:32;;;;;;;5.60;2.97;;;;;;;12.63;nan;99189.09;4956639;28;97793;-82
2023/10/29 05:31:58;;;;;;;7.05;2.90;;;;;;;12.63;nan;99183.00;4956856;28;98106;-82
2023/10/29 05:34:23;;;;;;;6.22;2.95;;;;;;;12.67;nan;99184.50;4924203;28;96644;-82
2023/10/29 05:36:49;;;;;;;7.38;3.00;;;;;;;12.71;nan;99172.81;4924611;28;96785;-82
2023/10/29 05:39:14;;;;;;;11.23;3.85;;;;;;;12.71;nan;99174.63;4923103;28;100933;-82
2023/10/29 05:41:41;;;;;;;9.55;3.55;;;;;;;12.74;nan;99167.41;4939734;28;101562;-81
2023/10/29 05:44:06;;;;;;;9.15;4.38;;;;;;;12.72;nan;99178.97;4939447;28;96658;-82
2023/10/29 05:46:32;;;;;;;11.98;4.93;;;;;;;12.58;nan;99162.19;4940447;28;96598;-82
2023/10/29 05:48:58;;;;;;;12.05;4.45;;;;;;;12.52;nan;99177.53;4939672;28;101000;-82
2023/10/29 05:51:23;;;;;;;9.23;4.20;;;;;;;12.49;nan;99161.91;4939724;28;101363;-82
2023/10/29 05:53:49;;;;;;;8.30;4.10;;;;;;;12.42;nan;99167.56;4907916;28;96806;-82
2023/10/29 05:56:15;;;;;;;8.10;3.40;;;;;;;12.33;nan;99152.28;4940085;28;96995;-82
2023/10/29 05:58:41;;;;;;;10.07;3.20;;;;;;;12.29;nan;99174.47;4939894;28;97807;-82
2023/10/29 06:01:07;;;;;;;8.82;3.40;;;;;;;12.24;nan;99180.00;4939689;28;101319;-82
2023/10/29 06:03:33;;;;;;;6.22;2.83;;;;;;;12.11;nan;99183.44;4939291;28;96544;-82
2023/10/29 06:05:59;;;;;;;7.95;2.67;;;;;;;12.13;nan;99192.09;4939896;28;96808;-82
2023/10/29 06:08:25;;;;;;;8.77;2.55;;;;;;;12.04;nan;99187.34;4939360;28;100989;-82
2023/10/29 06:10:50;;;;;;;7.32;3.22;;;;;;;11.92;nan;99184.50;4939562;28;101509;-82
2023/10/29 06:13:16;;;;;;;8.32;2.55;;;;;;;11.95;nan;99186.94;4923841;28;96547;-82
2023/10/29 06:15:42;;;;;;;5.03;2.47;;;;;;;12.04;nan;99182.09;4939253;28;96841;-82
2023/10/29 06:18:07;;;;;;;6.88;2.33;;;;;;;12.10;nan;99173.84;4939563;28;101111;-82
2023/10/29 06:20:34;;;;;;;8.93;1.83;;;;;;;12.21;nan;99187.22;4939878;28;101103;-82
2023/10/29 06:22:59;;;;;;;8.07;2.47;;;;;;;12.34;nan;99182.94;4939835;28;96677;-82
2023/10/29 06:25:26;;;;;;;5.93;2.05;;;;;;;12.24;nan;99172.09;4939858;28;96953;-82
2023/10/29 06:27:52;;;;;;;7.53;2.20;;;;;;;11.92;nan;99147.69;4938915;28;101930;-83
2023/10/29 06:30:17;;;;;;;5.85;1.90;;;;;;;12.21;nan;99187.22;4939599;28;97393;-82
2023/10/29 06:32:43;;;;;;;9.73;2.28;;;;;;;12.00;nan;99173.53;4939915;28;96681;-81
2023/10/29 06:35:09;;;;;;;4.00;1.48;;;;;;;12.09;nan;99165.13;4938486;28;96852;-81
2023/10/29 06:37:34;;;;;;;4.47;1.85;;;;;;;12.19;nan;99189.97;4939206;28;101319;-82
2023/10/29 06:40:01;;;;;;;5.18;1.95;;;;;;;11.94;nan;99169.50;4922808;28;101507;-82
2023/10/29 06:42:26;;;;;;;4.75;1.95;;;;;;;12.03;nan;99162.84;4907164;28;96634;-82
2023/10/29 06:44:52;;;;;;;7.40;1.88;;;;;;;12.23;nan;99191.47;4906839;28;96871;-83
2023/10/29 06:47:18;;;;;;;7.28;1.58;;;;;;;12.25;nan;99178.22;4906848;28;100819;-82
2023/10/29 06:49:43;;;;;;;6.20;1.65;;;;;;;12.26;nan;99187.81;4938646;28;101250;-83
2023/10/29 06:52:10;;;;;;;3.38;1.60;;;;;;;12.43;nan;99195.56;4938453;28;96590;-82
2023/10/29 06:54:35;;;;;;;3.97;2.08;;;;;;;12.42;nan;99188.59;4938869;28;96857;-82
2023/10/29 06:57:01;;;;;;;5.40;1.85;;;;;;;12.67;nan;99208.19;4938491;28;102092;-82
2023/10/29 06:59:28;;;;;;;4.88;1.80;;;;;;;12.83;nan;99185.25;4938388;28;101444;-82
2023/10/29 07:01:56;;;;;;;4.38;1.70;;;;;;;13.27;nan;99197.50;4955829;28;96641;-83
2023/10/29 07:04:22;;;;;;;4.60;1.60;;;;;;;13.98;nan;99209.63;4923026;28;96870;-83
2023/10/29 07:06:49;;;;;;;5.03;1.98;;;;;;;14.22;nan;99190.47;4937892;28;101460;-83
2023/10/29 07:09:15;;;;;;;3.13;1.67;;;;;;;14.88;nan;99201.84;4906785;28;101312;-82
2023/10/29 07:11:44;;;;;;;5.60;1.88;;;;;;;15.10;nan;99207.34;4956539;28;96572;-83
2023/10/29 07:14:11;;;;;;;5.38;2.40;;;;;;;15.31;nan;99196.19;4922201;28;96833;-82
2023/10/29 07:16:37;;;;;;;4.18;1.77;;;;;;;15.86;nan;99218.69;4937447;28;97472;-82
2023/10/29 07:19:04;;;;;;;5.28;1.85;;;;;;;15.75;nan;99221.28;4954339;28;97531;-82
2023/10/29 07:21:30;;;;;;;4.68;2.08;;;;;;;15.10;nan;99209.16;4938124;28;96686;-82
2023/10/29 07:23:55;;;;;;;5.60;1.45;;;;;;;14.89;nan;99206.19;4938132;28;96500;-82
2023/10/29 07:26:21;;;;;;;4.93;1.90;;;;;;;14.62;nan;99219.50;4937433;28;102029;-83
2023/10/29 07:28:46;;;;;;;3.63;1.60;;;;;;;14.33;nan;99195.88;4937942;28;97982;-83
2023/10/29 07:31:12;;;;;;;3.75;1.80;;;;;;;14.76;nan;99200.91;4938008;28;96658;-83
2023/10/29 07:33:37;;;;;;;3.47;1.50;;;;;;;15.23;nan;99203.81;4938754;28;96882;-83
2023/10/29 07:36:04;;;;;;;5.03;1.75;;;;;;;15.33;nan;99215.41;4953065;28;100857;-83
2023/10/29 07:38:30;;;;;;;3.65;1.63;;;;;;;15.66;nan;99200.75;4953467;28;101013;-83
2023/10/29 07:40:55;;;;;;;7.35;2.78;;;;;;;16.42;nan;99204.81;4936939;28;96591;-84
2023/10/29 07:43:21;;;;;;;4.65;1.90;;;;;;;16.64;nan;99209.31;4937427;28;97088;-82
2023/10/29 07:45:47;;;;;;;4.13;1.95;;;;;;;16.56;nan;99212.56;4937106;28;98559;-83
2023/10/29 07:48:17;;;;;;;5.75;2.42;;;;;;;16.33;nan;99206.38;4937551;28;97816;-83
2023/10/29 07:50:49;;;;;;;8.55;1.63;;;;;;;16.25;nan;99217.53;4937795;28;96622;-82
2023/10/29 07:53:14;;;;;;;5.25;1.60;;;;;;;16.02;nan;99202.50;4937352;28;96897;-83
2023/10/29 07:55:40;;;;;;;5.75;1.92;;;;;;;15.94;nan;99203.09;4937189;28;97748;-85
2023/10/29 07:58:05;;;;;;;3.70;1.55;;;;;;;15.93;nan;99205.84;4937948;28;97658;-82
2023/10/29 08:00:31;;;;;;;8.32;1.38;;;;;;;16.91;nan;99198.44;4937658;28;96673;-83
2023/10/29 08:02:57;;;;;;;2.42;1.30;;;;;;;17.25;nan;99193.13;4937816;28;96804;-82
2023/10/29 08:05:22;;;;;;;3.33;1.50;;;;;;;16.95;nan;99168.91;4936678;28;100888;-85
2023/10/29 08:07:48;;;;;;;6.55;1.40;;;;;;;16.59;nan;99188.50;4937497;28;100732;-82
2023/10/29 08:10:13;;;;;;;4.18;1.42;;;;;;;16.95;nan;99176.03;4921827;28;96637;-82
2023/10/29 08:12:39;;;;;;;4.90;1.30;;;;;;;17.81;nan;99191.25;4937562;28;96873;-85
2023/10/29 08:15:05;;;;;;;4.22;1.52;;;;;;;18.29;nan;99185.47;4936429;28;101508;-85
2023/10/29 08:17:31;;;;;;;1.95;1.20;;;;;;;17.28;nan;99193.75;4937324;28;98683;-85
2023/10/29 08:19:58;;;;;;;4.55;1.70;;;;;;;18.03;nan;99179.69;4937304;28;96562;-84
2023/10/29 08:22:24;;;;;;;2.92;1.42;;;;;;;18.63;nan;99179.97;4937924;28;96869;-86
2023/10/29 08:24:50;;;;;;;4.00;1.20;;;;;;;17.91;nan;99161.28;4921085;28;101538;-87
2023/10/29 08:27:16;;;;;;;4.55;1.45;;;;;;;18.72;nan;99178.34;4921252;28;98452;-88
2023/10/29 08:29:43;;;;;;;3.60;1.27;;;;;;;18.26;nan;99172.47;4920717;28;96736;-87
2023/10/29 08:32:09;;;;;;;8.32;1.60;;;;;;;17.70;nan;99185.09;4921302;28;96847;-87
2023/10/29 08:34:34;;;;;;;3.58;1.48;;;;;;;17.08;nan;99166.16;4937404;28;101753;-83
2023/10/29 08:37:00;;;;;;;5.75;1.60;;;;;;;17.10;nan;99190.72;4937132;28;97519;-83
2023/10/29 08:39:25;;;;;;;3.17;1.50;;;;;;;16.64;nan;99196.06;4921067;28;96655;-86
2023/10/29 08:41:51;;;;;;;2.78;1.40;;;;;;;16.37;nan;99193.72;4937229;28;96763;-90
2023/10/29 08:44:20;;;;;;;4.35;1.83;;;;;;;16.18;nan;99191.66;4937370;28;97746;-85
2023/10/29 08:46:46;;;;;;;11.90;2.47;;;;;;;15.98;nan;99190.47;4937863;28;101251;-87
2023/10/29 08:49:12;;;;;;;4.80;1.90;;;;;;;15.53;nan;99159.34;4937534;28;96605;-85
2023/10/29 08:51:38;;;;;;;9.10;1.92;;;;;;;15.78;nan;99179.56;4937226;28;96741;-85
2023/10/29 08:54:04;;;;;;;4.00;1.38;;;;;;;16.10;nan;99178.97;4920382;28;102179;-85
2023/10/29 08:56:33;;;;;;;2.92;1.50;;;;;;;16.47;nan;99163.78;4953267;28;98364;-86
2023/10/29 08:58:59;;;;;;;3.63;1.80;;;;;;;16.99;nan;99174.84;4924460;28;96783;-86
2023/10/29 09:01:25;;;;;;;5.15;1.63;;;;;;;17.86;nan;99177.63;4941074;28;96913;-87
2023/10/29 09:03:50;;;;;;;3.85;2.15;;;;;;;17.74;nan;99174.09;4924382;28;99916;-86
2023/10/29 09:06:16;;;;;;;4.47;1.70;;;;;;;18.41;nan;99174.78;4925104;28;98289;-87
2023/10/29 09:08:42;;;;;;;8.05;2.10;;;;;;;18.01;nan;99181.66;4940157;28;96696;-83
2023/10/29 09:11:13;;;;;;;2.42;1.50;;;;;;;17.75;nan;99180.25;4941018;28;96782;-85
2023/10/29 09:13:38;;;;;;;8.65;1.65;;;;;;;18.55;nan;99182.44;4940000;28;97662;-86
2023/10/29 09:16:04;;;;;;;3.95;1.52;;;;;;;18.72;nan;99173.03;4939657;28;101137;-84
2023/10/29 09:18:30;;;;;;;4.47;2.00;;;;;;;18.07;nan;99190.91;4939785;28;96675;-85
2023/10/29 09:20:55;;;;;;;5.93;1.55;;;;;;;17.46;nan;99179.97;4939934;28;96897;-84
2023/10/29 09:23:22;;;;;;;6.47;2.28;;;;;;;17.76;nan;99190.75;4939955;28;98668;-85
2023/10/29 09:25:48;;;;;;;7.15;1.67;;;;;;;17.31;nan;99169.63;4939545;28;100927;-86
2023/10/29 09:28:14;;;;;;;9.65;1.83;;;;;;;17.48;nan;99191.28;4940115;28;96641;-85
2023/10/29 09:30:40;;;;;;;2.80;1.52;;;;;;;17.31;nan;99158.19;4923851;28;96949;-85
2023/10/29 09:33:07;;;;;;;9.27;2.28;;;;;;;17.66;nan;99189.81;4923141;28;101285;-84
2023/10/29 09:35:32;;;;;;;4.63;1.70;;;;;;;17.62;nan;99173.28;4924154;28;97395;-86
2023/10/29 09:37:58;;;;;;;4.50;2.08;;;;;;;17.12;nan;99169.41;4940355;28;96570;-85
2023/10/29 09:40:24;;;;;;;6.25;2.45;;;;;;;16.74;nan;99184.66;4957499;28;96787;-86
2023/10/29 09:42:55;;;;;;;3.70;1.95;;;;;;;16.70;nan;99171.78;4938686;28;101370;-84
2023/10/29 09:45:27;;;;;;;7.38;1.98;;;;;;;16.48;nan;99146.09;4922946;28;101693;-85
2023/10/29 09:47:53;;;;;;;4.20;1.98;;;;;;;16.75;nan;99173.13;4923556;28;96724;-83
2023/10/29 09:50:20;;;;;;;3.70;1.70;;;;;;;16.82;nan;99178.81;4923366;28;96752;-84
2023/10/29 09:52:53;;;;;;;4.72;1.92;;;;;;;16.66;nan;99165.84;4939111;28;101817;-83
2023/10/29 09:55:20;;;;;;;5.10;1.75;;;;;;;16.60;nan;99162.84;4938439;28;101742;-82
2023/10/29 09:57:46;;;;;;;4.00;1.52;;;;;;;16.90;nan;99157.84;4955882;28;96753;-83
2023/10/29 10:00:15;;;;;;;3.65;1.95;;;;;;;16.92;nan;99147.94;4939619;28;96805;-83
2023/10/29 10:02:57;;;;;;;4.57;1.83;;;;;;;16.88;nan;99138.56;4939091;28;97826;-83
2023/10/29 10:05:24;;;;;;;3.65;1.90;;;;;;;17.08;nan;99138.81;4922768;28;101497;-84
2023/10/29 10:07:55;;;;;;;4.90;2.03;;;;;;;17.10;nan;99128.91;4938589;28;96629;-83
2023/10/29 10:10:21;;;;;;;3.53;2.00;;;;;;;17.18;nan;99124.66;4922269;28;96828;-83
2023/10/29 10:12:51;;;;;;;4.90;1.98;;;;;;;16.91;nan;99111.81;4938768;28;101351;-86
2023/10/29 10:15:18;;;;;;;2.93;1.77;;;;;;;16.95;nan;99139.75;4938740;28;101434;-84
2023/10/29 10:17:48;;;;;;;6.20;2.03;;;;;;;16.77;nan;99119.19;4923073;28;96634;-82
2023/10/29 10:20:16;;;;;;;3.78;1.92;;;;;;;16.97;nan;99121.09;4939391;28;96605;-82
2023/10/29 10:22:43;;;;;;;3.05;1.75;;;;;;;17.01;nan;99101.31;4939378;28;97494;-82
2023/10/29 10:25:19;;;;;;;4.00;1.77;;;;;;;17.14;nan;99125.91;4938709;28;100353;-80
2023/10/29 10:27:49;;;;;;;6.35;2.20;;;;;;;17.32;nan;99114.78;4938737;28;96516;-83
2023/10/29 10:30:28;;;;;;;4.18;2.47;;;;;;;17.31;nan;99108.63;4923277;28;96765;-83
2023/10/29 10:33:13;;;;;;;7.05;2.13;;;;;;;17.20;nan;99124.56;4938045;28;101509;-80
2023/10/29 10:35:54;;;;;;;5.47;1.88;;;;;;;17.36;nan;99111.72;4938365;28;101437;-80
2023/10/29 10:38:20;;;;;;;3.92;2.30;;;;;;;17.44;nan;99103.16;4923252;28;96738;-81
2023/10/29 10:40:47;;;;;;;4.03;1.70;;;;;;;17.16;nan;99116.03;4938512;28;96784;-80
2023/10/29 10:43:18;;;;;;;4.88;1.85;;;;;;;17.19;nan;99117.56;4922413;28;97806;-81
2023/10/29 10:45:44;;;;;;;3.72;2.42;;;;;;;17.31;nan;99121.88;4934927;28;100634;-82
2023/10/29 10:48:09;;;;;;;4.75;1.80;;;;;;;17.79;nan;99089.66;4919606;28;96513;-81
2023/10/29 10:50:35;;;;;;;5.68;2.08;;;;;;;18.20;nan;99111.06;4935599;28;96898;-81
2023/10/29 10:53:01;;;;;;;4.18;1.92;;;;;;;17.81;nan;99069.16;4918882;28;101662;-83
2023/10/29 10:55:29;;;;;;;4.38;1.83;;;;;;;17.93;nan;99085.88;4918678;28;101253;-83
2023/10/29 10:57:55;;;;;;;5.28;2.28;;;;;;;17.53;nan;99099.75;4918960;28;96599;-81
2023/10/29 11:00:24;;;;;;;3.28;2.05;;;;;;;17.33;nan;99079.31;4936014;28;96858;-85
2023/10/29 11:02:51;;;;;;;2.58;1.67;;;;;;;17.37;nan;99102.81;4919565;28;98662;-85
2023/10/29 11:05:18;;;;;;;3.95;1.80;;;;;;;17.41;nan;99098.09;4935394;28;97372;-86
2023/10/29 11:07:44;;;;;;;3.58;2.05;;;;;;;17.29;nan;99091.16;4935578;28;96573;-83
2023/10/29 11:10:14;;;;;;;3.75;1.77;;;;;;;17.29;nan;99089.34;4919593;28;96859;-83
2023/10/29 11:12:40;;;;;;;6.28;2.13;;;;;;;17.42;nan;99097.13;4918632;28;100669;-84
2023/10/29 11:15:16;;;;;;;3.85;1.90;;;;;;;17.40;nan;99091.97;4919193;28;101486;-84
2023/10/29 11:18:01;;;;;;;3.47;1.80;;;;;;;17.50;nan;99076.13;4919244;28;96579;-84
2023/10/29 11:20:56;;;;;;;5.10;2.20;;;;;;;17.62;nan;99075.09;4951138;28;96792;-83
2023/10/29 11:23:23;;;;;;;4.97;1.75;;;;;;;17.32;nan;99064.38;4933985;28;101106;-83
2023/10/29 11:25:50;;;;;;;4.07;2.00;;;;;;;17.41;nan;99075.06;4902494;28;101792;-84
2023/10/29 11:28:26;;;;;;;4.80;2.38;;;;;;;17.50;nan;99057.56;4934979;28;96562;-83
2023/10/29 11:31:10;;;;;;;6.95;2.20;;;;;;;17.46;nan;99063.25;4951388;28;96584;-84
2023/10/29 11:33:36;;;;;;;4.18;2.58;;;;;;;17.24;nan;99057.03;4951008;28;97939;-82
2023/10/29 11:36:32;;;;;;;6.32;2.50;;;;;;;17.45;nan;99061.56;4918589;28;98328;-84
2023/10/29 11:39:17;;;;;;;4.53;2.10;;;;;;;17.50;nan;99054.06;4918920;28;96615;-85
2023/10/29 11:41:45;;;;;;;4.72;2.50;;;;;;;17.47;nan;99052.50;4935599;28;96810;-84
2023/10/29 11:44:27;;;;;;;3.83;1.95;;;;;;;17.46;nan;99056.13;4917746;28;101225;-83